sensor_id;sensor_type;location;lat;lon;timestamp;P1;durP1;ratioP1;P2;durP2;ratioP2
36663;SDS011;53333;51.976;20.144;2023-02-03T00:01:18;8.32;;;5.03;;
36663;SDS011;53333;51.976;20.144;2023-02-03T00:03:51;6.87;;;4.10;;
36663;SDS011;53333;51.976;20.144;2023-02-03T00:06:26;7.72;;;4.38;;
36663;SDS011;53333;51.976;20.144;2023-02-03T00:08:59;5.47;;;3.60;;
36663;SDS011;53333;51.976;20.144;2023-02-03T00:11:32;10.37;;;4.27;;
36663;SDS011;53333;51.976;20.144;2023-02-03T00:14:05;8.93;;;4.73;;
36663;SDS011;53333;51.976;20.144;2023-02-03T00:16:39;5.63;;;3.63;;
36663;SDS011;53333;51.976;20.144;2023-02-03T00:19:12;5.45;;;3.83;;
36663;SDS011;53333;51.976;20.144;2023-02-03T00:21:49;10.35;;;4.22;;
36663;SDS011;53333;51.976;20.144;2023-02-03T00:24:22;9.85;;;4.05;;
36663;SDS011;53333;51.976;20.144;2023-02-03T00:26:57;6.10;;;3.50;;
36663;SDS011;53333;51.976;20.144;2023-02-03T00:29:31;8.30;;;4.00;;
36663;SDS011;53333;51.976;20.144;2023-02-03T00:32:04;5.75;;;3.75;;
36663;SDS011;53333;51.976;20.144;2023-02-03T00:34:37;8.45;;;3.97;;
36663;SDS011;53333;51.976;20.144;2023-02-03T00:37:12;5.78;;;3.72;;
36663;SDS011;53333;51.976;20.144;2023-02-03T00:39:45;6.13;;;4.00;;
36663;SDS011;53333;51.976;20.144;2023-02-03T00:42:18;9.32;;;4.60;;
36663;SDS011;53333;51.976;20.144;2023-02-03T00:44:51;7.97;;;3.93;;
36663;SDS011;53333;51.976;20.144;2023-02-03T00:47:25;7.55;;;3.65;;
36663;SDS011;53333;51.976;20.144;2023-02-03T00:49:58;6.95;;;3.28;;
36663;SDS011;53333;51.976;20.144;2023-02-03T00:52:33;5.03;;;2.95;;
36663;SDS011;53333;51.976;20.144;2023-02-03T00:55:06;7.45;;;4.10;;
36663;SDS011;53333;51.976;20.144;2023-02-03T00:57:40;7.22;;;3.47;;
36663;SDS011;53333;51.976;20.144;2023-02-03T01:00:14;6.45;;;3.00;;
36663;SDS011;53333;51.976;20.144;2023-02-03T01:02:48;5.68;;;3.53;;
36663;SDS011;53333;51.976;20.144;2023-02-03T01:05:22;8.73;;;4.45;;
36663;SDS011;53333;51.976;20.144;2023-02-03T01:07:56;6.32;;;3.03;;
36663;SDS011;53333;51.976;20.144;2023-02-03T01:10:29;6.45;;;3.45;;
36663;SDS011;53333;51.976;20.144;2023-02-03T01:13:02;7.65;;;3.30;;
36663;SDS011;53333;51.976;20.144;2023-02-03T01:15:36;3.60;;;3.00;;
36663;SDS011;53333;51.976;20.144;2023-02-03T01:18:09;4.80;;;2.70;;
36663;SDS011;53333;51.976;20.144;2023-02-03T01:20:42;8.83;;;3.27;;
36663;SDS011;53333;51.976;20.144;2023-02-03T01:23:16;9.65;;;3.40;;
36663;SDS011;53333;51.976;20.144;2023-02-03T01:25:49;4.05;;;2.63;;
36663;SDS011;53333;51.976;20.144;2023-02-03T01:28:22;5.00;;;2.63;;
36663;SDS011;53333;51.976;20.144;2023-02-03T01:33:30;3.05;;;2.50;;
36663;SDS011;53333;51.976;20.144;2023-02-03T01:36:03;4.55;;;3.42;;
36663;SDS011;53333;51.976;20.144;2023-02-03T01:38:37;3.27;;;2.70;;
36663;SDS011;53333;51.976;20.144;2023-02-03T01:41:11;5.57;;;2.47;;
36663;SDS011;53333;51.976;20.144;2023-02-03T01:43:49;4.97;;;3.55;;
36663;SDS011;53333;51.976;20.144;2023-02-03T01:46:24;7.93;;;3.05;;
36663;SDS011;53333;51.976;20.144;2023-02-03T01:49:03;6.43;;;3.65;;
36663;SDS011;53333;51.976;20.144;2023-02-03T01:51:42;7.60;;;3.10;;
36663;SDS011;53333;51.976;20.144;2023-02-03T01:54:19;8.50;;;3.50;;
36663;SDS011;53333;51.976;20.144;2023-02-03T01:56:58;5.55;;;3.33;;
36663;SDS011;53333;51.976;20.144;2023-02-03T01:59:33;6.97;;;3.47;;
36663;SDS011;53333;51.976;20.144;2023-02-03T02:02:07;5.05;;;3.22;;
36663;SDS011;53333;51.976;20.144;2023-02-03T02:04:47;5.03;;;3.97;;
36663;SDS011;53333;51.976;20.144;2023-02-03T02:07:27;5.07;;;3.63;;
36663;SDS011;53333;51.976;20.144;2023-02-03T02:10:03;7.40;;;3.03;;
36663;SDS011;53333;51.976;20.144;2023-02-03T02:12:37;4.47;;;3.42;;
36663;SDS011;53333;51.976;20.144;2023-02-03T02:15:10;4.10;;;3.15;;
36663;SDS011;53333;51.976;20.144;2023-02-03T02:17:48;7.32;;;3.50;;
36663;SDS011;53333;51.976;20.144;2023-02-03T02:23:59;8.70;;;3.20;;
36663;SDS011;53333;51.976;20.144;2023-02-03T02:27:00;5.43;;;3.47;;
36663;SDS011;53333;51.976;20.144;2023-02-03T02:33:01;8.63;;;3.78;;
36663;SDS011;53333;51.976;20.144;2023-02-03T02:35:43;6.43;;;4.13;;
36663;SDS011;53333;51.976;20.144;2023-02-03T02:38:27;8.88;;;4.15;;
36663;SDS011;53333;51.976;20.144;2023-02-03T02:41:12;9.60;;;4.97;;
36663;SDS011;53333;51.976;20.144;2023-02-03T02:43:55;8.25;;;3.95;;
36663;SDS011;53333;51.976;20.144;2023-02-03T02:46:34;8.95;;;4.07;;
36663;SDS011;53333;51.976;20.144;2023-02-03T02:49:13;9.15;;;4.68;;
36663;SDS011;53333;51.976;20.144;2023-02-03T02:51:50;7.18;;;4.18;;
36663;SDS011;53333;51.976;20.144;2023-02-03T02:54:25;9.10;;;4.00;;
36663;SDS011;53333;51.976;20.144;2023-02-03T02:57:02;7.95;;;4.28;;
36663;SDS011;53333;51.976;20.144;2023-02-03T02:59:38;6.82;;;4.20;;
36663;SDS011;53333;51.976;20.144;2023-02-03T03:02:11;9.73;;;4.28;;
36663;SDS011;53333;51.976;20.144;2023-02-03T03:04:45;8.17;;;4.80;;
36663;SDS011;53333;51.976;20.144;2023-02-03T03:07:22;5.47;;;4.25;;
36663;SDS011;53333;51.976;20.144;2023-02-03T03:09:59;10.13;;;5.40;;
36663;SDS011;53333;51.976;20.144;2023-02-03T03:12:35;8.15;;;5.10;;
36663;SDS011;53333;51.976;20.144;2023-02-03T03:15:13;11.65;;;4.30;;
36663;SDS011;53333;51.976;20.144;2023-02-03T03:17:54;5.53;;;4.80;;
36663;SDS011;53333;51.976;20.144;2023-02-03T03:20:33;7.82;;;4.28;;
36663;SDS011;53333;51.976;20.144;2023-02-03T03:23:10;7.97;;;4.47;;
36663;SDS011;53333;51.976;20.144;2023-02-03T03:25:50;7.72;;;4.38;;
36663;SDS011;53333;51.976;20.144;2023-02-03T03:28:29;7.65;;;4.20;;
36663;SDS011;53333;51.976;20.144;2023-02-03T03:31:09;9.52;;;5.40;;
36663;SDS011;53333;51.976;20.144;2023-02-03T03:33:42;8.27;;;4.70;;
36663;SDS011;53333;51.976;20.144;2023-02-03T03:36:21;8.70;;;4.72;;
36663;SDS011;53333;51.976;20.144;2023-02-03T03:38:59;6.07;;;4.53;;
36663;SDS011;53333;51.976;20.144;2023-02-03T03:41:37;8.88;;;4.85;;
36663;SDS011;53333;51.976;20.144;2023-02-03T03:44:13;8.07;;;4.80;;
36663;SDS011;53333;51.976;20.144;2023-02-03T03:46:50;8.48;;;5.03;;
36663;SDS011;53333;51.976;20.144;2023-02-03T03:49:30;7.85;;;4.60;;
36663;SDS011;53333;51.976;20.144;2023-02-03T03:52:07;9.40;;;4.60;;
36663;SDS011;53333;51.976;20.144;2023-02-03T03:54:42;7.47;;;4.95;;
36663;SDS011;53333;51.976;20.144;2023-02-03T03:57:18;9.60;;;4.40;;
36663;SDS011;53333;51.976;20.144;2023-02-03T03:59:56;9.20;;;4.55;;
36663;SDS011;53333;51.976;20.144;2023-02-03T04:02:41;10.48;;;4.60;;
36663;SDS011;53333;51.976;20.144;2023-02-03T04:05:18;7.82;;;4.20;;
36663;SDS011;53333;51.976;20.144;2023-02-03T04:07:54;8.05;;;4.85;;
36663;SDS011;53333;51.976;20.144;2023-02-03T04:10:29;8.90;;;5.88;;
36663;SDS011;53333;51.976;20.144;2023-02-03T04:13:04;8.65;;;5.13;;
36663;SDS011;53333;51.976;20.144;2023-02-03T04:18:10;15.20;;;6.00;;
36663;SDS011;53333;51.976;20.144;2023-02-03T04:20:45;12.15;;;6.22;;
36663;SDS011;53333;51.976;20.144;2023-02-03T04:23:19;16.48;;;7.53;;
36663;SDS011;53333;51.976;20.144;2023-02-03T04:25:52;19.25;;;8.02;;
36663;SDS011;53333;51.976;20.144;2023-02-03T04:28:25;31.65;;;10.98;;
36663;SDS011;53333;51.976;20.144;2023-02-03T04:30:59;32.93;;;10.63;;
36663;SDS011;53333;51.976;20.144;2023-02-03T04:33:32;32.80;;;9.80;;
36663;SDS011;53333;51.976;20.144;2023-02-03T04:36:05;26.33;;;9.47;;
36663;SDS011;53333;51.976;20.144;2023-02-03T04:38:41;20.15;;;9.30;;
36663;SDS011;53333;51.976;20.144;2023-02-03T04:41:14;18.85;;;7.85;;
36663;SDS011;53333;51.976;20.144;2023-02-03T04:43:47;16.60;;;8.30;;
36663;SDS011;53333;51.976;20.144;2023-02-03T04:46:20;14.67;;;7.23;;
36663;SDS011;53333;51.976;20.144;2023-02-03T04:48:53;15.33;;;7.07;;
36663;SDS011;53333;51.976;20.144;2023-02-03T04:51:26;11.63;;;5.70;;
36663;SDS011;53333;51.976;20.144;2023-02-03T04:54:00;12.67;;;6.00;;
36663;SDS011;53333;51.976;20.144;2023-02-03T04:56:33;8.60;;;5.50;;
36663;SDS011;53333;51.976;20.144;2023-02-03T04:59:06;8.93;;;4.65;;
36663;SDS011;53333;51.976;20.144;2023-02-03T05:01:39;9.38;;;4.53;;
36663;SDS011;53333;51.976;20.144;2023-02-03T05:04:12;11.53;;;5.33;;
36663;SDS011;53333;51.976;20.144;2023-02-03T05:06:45;17.05;;;5.97;;
36663;SDS011;53333;51.976;20.144;2023-02-03T05:09:20;13.65;;;5.95;;
36663;SDS011;53333;51.976;20.144;2023-02-03T05:11:53;29.40;;;8.50;;
36663;SDS011;53333;51.976;20.144;2023-02-03T05:14:26;19.17;;;10.27;;
36663;SDS011;53333;51.976;20.144;2023-02-03T05:16:59;26.33;;;9.80;;
36663;SDS011;53333;51.976;20.144;2023-02-03T05:19:34;25.02;;;9.00;;
36663;SDS011;53333;51.976;20.144;2023-02-03T05:22:07;25.65;;;8.77;;
36663;SDS011;53333;51.976;20.144;2023-02-03T05:24:42;19.65;;;9.60;;
36663;SDS011;53333;51.976;20.144;2023-02-03T05:27:15;27.77;;;8.98;;
36663;SDS011;53333;51.976;20.144;2023-02-03T05:29:48;41.22;;;14.15;;
36663;SDS011;53333;51.976;20.144;2023-02-03T05:32:21;31.90;;;11.27;;
36663;SDS011;53333;51.976;20.144;2023-02-03T05:34:54;28.23;;;9.98;;
36663;SDS011;53333;51.976;20.144;2023-02-03T05:37:27;22.92;;;8.88;;
36663;SDS011;53333;51.976;20.144;2023-02-03T05:40:01;20.13;;;8.63;;
36663;SDS011;53333;51.976;20.144;2023-02-03T05:42:52;17.35;;;7.25;;
36663;SDS011;53333;51.976;20.144;2023-02-03T05:45:25;13.10;;;5.70;;
36663;SDS011;53333;51.976;20.144;2023-02-03T05:47:58;11.75;;;5.68;;
36663;SDS011;53333;51.976;20.144;2023-02-03T05:50:33;11.90;;;5.25;;
36663;SDS011;53333;51.976;20.144;2023-02-03T05:53:12;15.80;;;8.18;;
36663;SDS011;53333;51.976;20.144;2023-02-03T05:55:46;12.57;;;6.53;;
36663;SDS011;53333;51.976;20.144;2023-02-03T05:58:19;14.10;;;7.30;;
36663;SDS011;53333;51.976;20.144;2023-02-03T06:00:52;10.20;;;6.13;;
36663;SDS011;53333;51.976;20.144;2023-02-03T06:03:25;17.73;;;7.60;;
36663;SDS011;53333;51.976;20.144;2023-02-03T06:05:58;20.40;;;8.02;;
36663;SDS011;53333;51.976;20.144;2023-02-03T06:08:31;19.33;;;9.17;;
36663;SDS011;53333;51.976;20.144;2023-02-03T06:11:06;39.10;;;16.23;;
36663;SDS011;53333;51.976;20.144;2023-02-03T06:13:39;32.13;;;11.35;;
36663;SDS011;53333;51.976;20.144;2023-02-03T06:16:12;23.45;;;9.57;;
36663;SDS011;53333;51.976;20.144;2023-02-03T06:18:45;28.27;;;10.43;;
36663;SDS011;53333;51.976;20.144;2023-02-03T06:21:18;30.37;;;11.77;;
36663;SDS011;53333;51.976;20.144;2023-02-03T06:23:52;25.80;;;10.02;;
36663;SDS011;53333;51.976;20.144;2023-02-03T06:26:28;23.45;;;10.27;;
36663;SDS011;53333;51.976;20.144;2023-02-03T06:29:01;22.23;;;9.55;;
36663;SDS011;53333;51.976;20.144;2023-02-03T06:31:34;22.37;;;10.20;;
36663;SDS011;53333;51.976;20.144;2023-02-03T06:34:10;25.40;;;10.18;;
36663;SDS011;53333;51.976;20.144;2023-02-03T06:36:43;19.77;;;9.40;;
36663;SDS011;53333;51.976;20.144;2023-02-03T06:41:51;18.70;;;9.32;;
36663;SDS011;53333;51.976;20.144;2023-02-03T06:44:26;24.25;;;9.07;;
36663;SDS011;53333;51.976;20.144;2023-02-03T06:46:59;20.17;;;10.83;;
36663;SDS011;53333;51.976;20.144;2023-02-03T06:52:06;23.70;;;9.75;;
36663;SDS011;53333;51.976;20.144;2023-02-03T06:54:39;20.37;;;11.33;;
36663;SDS011;53333;51.976;20.144;2023-02-03T06:57:13;27.20;;;12.05;;
36663;SDS011;53333;51.976;20.144;2023-02-03T06:59:46;28.00;;;11.82;;
36663;SDS011;53333;51.976;20.144;2023-02-03T07:02:19;19.60;;;10.43;;
36663;SDS011;53333;51.976;20.144;2023-02-03T07:04:52;27.77;;;11.60;;
36663;SDS011;53333;51.976;20.144;2023-02-03T07:07:25;25.17;;;11.83;;
36663;SDS011;53333;51.976;20.144;2023-02-03T07:09:58;22.05;;;11.63;;
36663;SDS011;53333;51.976;20.144;2023-02-03T07:12:33;33.10;;;12.23;;
36663;SDS011;53333;51.976;20.144;2023-02-03T07:15:07;24.90;;;13.77;;
36663;SDS011;53333;51.976;20.144;2023-02-03T07:17:41;21.17;;;11.25;;
36663;SDS011;53333;51.976;20.144;2023-02-03T07:20:14;26.92;;;14.00;;
36663;SDS011;53333;51.976;20.144;2023-02-03T07:22:51;28.90;;;12.20;;
36663;SDS011;53333;51.976;20.144;2023-02-03T07:25:24;22.55;;;12.80;;
36663;SDS011;53333;51.976;20.144;2023-02-03T07:27:59;17.43;;;10.37;;
36663;SDS011;53333;51.976;20.144;2023-02-03T07:30:32;16.20;;;9.38;;
36663;SDS011;53333;51.976;20.144;2023-02-03T07:33:05;19.38;;;9.23;;
36663;SDS011;53333;51.976;20.144;2023-02-03T07:35:38;20.13;;;9.60;;
36663;SDS011;53333;51.976;20.144;2023-02-03T07:38:11;15.60;;;8.20;;
36663;SDS011;53333;51.976;20.144;2023-02-03T07:40:44;16.17;;;8.25;;
36663;SDS011;53333;51.976;20.144;2023-02-03T07:43:19;15.83;;;8.70;;
36663;SDS011;53333;51.976;20.144;2023-02-03T07:45:52;13.98;;;7.93;;
36663;SDS011;53333;51.976;20.144;2023-02-03T07:48:25;16.88;;;9.32;;
36663;SDS011;53333;51.976;20.144;2023-02-03T07:50:58;16.87;;;8.27;;
36663;SDS011;53333;51.976;20.144;2023-02-03T07:53:31;15.00;;;7.57;;
36663;SDS011;53333;51.976;20.144;2023-02-03T07:56:04;16.80;;;8.67;;
36663;SDS011;53333;51.976;20.144;2023-02-03T07:58:39;14.13;;;7.80;;
36663;SDS011;53333;51.976;20.144;2023-02-03T08:01:13;15.65;;;7.60;;
36663;SDS011;53333;51.976;20.144;2023-02-03T08:03:47;16.15;;;8.48;;
36663;SDS011;53333;51.976;20.144;2023-02-03T08:06:20;16.73;;;8.90;;
36663;SDS011;53333;51.976;20.144;2023-02-03T08:08:54;16.58;;;8.27;;
36663;SDS011;53333;51.976;20.144;2023-02-03T08:11:27;18.90;;;9.20;;
36663;SDS011;53333;51.976;20.144;2023-02-03T08:14:01;23.03;;;10.10;;
36663;SDS011;53333;51.976;20.144;2023-02-03T08:16:34;18.67;;;10.27;;
36663;SDS011;53333;51.976;20.144;2023-02-03T08:19:08;17.42;;;8.70;;
36663;SDS011;53333;51.976;20.144;2023-02-03T08:24:14;10.75;;;6.50;;
36663;SDS011;53333;51.976;20.144;2023-02-03T08:26:47;13.68;;;7.43;;
36663;SDS011;53333;51.976;20.144;2023-02-03T08:29:22;19.05;;;8.45;;
36663;SDS011;53333;51.976;20.144;2023-02-03T08:31:57;12.88;;;7.47;;
36663;SDS011;53333;51.976;20.144;2023-02-03T08:34:30;16.20;;;7.53;;
36663;SDS011;53333;51.976;20.144;2023-02-03T08:37:04;17.98;;;7.95;;
36663;SDS011;53333;51.976;20.144;2023-02-03T08:39:38;13.68;;;7.07;;
36663;SDS011;53333;51.976;20.144;2023-02-03T08:42:11;15.00;;;7.38;;
36663;SDS011;53333;51.976;20.144;2023-02-03T08:44:46;15.23;;;7.32;;
36663;SDS011;53333;51.976;20.144;2023-02-03T08:47:19;16.60;;;6.88;;
36663;SDS011;53333;51.976;20.144;2023-02-03T08:49:52;16.60;;;8.07;;
36663;SDS011;53333;51.976;20.144;2023-02-03T08:52:25;17.03;;;7.83;;
36663;SDS011;53333;51.976;20.144;2023-02-03T08:54:59;19.95;;;7.70;;
36663;SDS011;53333;51.976;20.144;2023-02-03T08:57:32;16.97;;;8.33;;
36663;SDS011;53333;51.976;20.144;2023-02-03T09:00:08;15.23;;;7.90;;
36663;SDS011;53333;51.976;20.144;2023-02-03T09:02:45;15.93;;;7.18;;
36663;SDS011;53333;51.976;20.144;2023-02-03T09:05:18;13.93;;;6.43;;
36663;SDS011;53333;51.976;20.144;2023-02-03T09:07:51;12.10;;;7.38;;
36663;SDS011;53333;51.976;20.144;2023-02-03T09:10:24;11.27;;;6.07;;
36663;SDS011;53333;51.976;20.144;2023-02-03T09:12:58;14.80;;;6.47;;
36663;SDS011;53333;51.976;20.144;2023-02-03T09:15:34;13.38;;;7.43;;
36663;SDS011;53333;51.976;20.144;2023-02-03T09:18:10;9.00;;;5.55;;
36663;SDS011;53333;51.976;20.144;2023-02-03T09:20:44;12.77;;;6.30;;
36663;SDS011;53333;51.976;20.144;2023-02-03T09:23:17;10.30;;;6.10;;
36663;SDS011;53333;51.976;20.144;2023-02-03T09:25:50;11.40;;;5.90;;
36663;SDS011;53333;51.976;20.144;2023-02-03T09:28:23;11.33;;;6.40;;
36663;SDS011;53333;51.976;20.144;2023-02-03T09:30:59;13.07;;;6.68;;
36663;SDS011;53333;51.976;20.144;2023-02-03T09:33:33;12.95;;;7.03;;
36663;SDS011;53333;51.976;20.144;2023-02-03T09:36:06;11.10;;;6.25;;
36663;SDS011;53333;51.976;20.144;2023-02-03T09:38:40;14.95;;;7.55;;
36663;SDS011;53333;51.976;20.144;2023-02-03T09:41:21;14.13;;;7.05;;
36663;SDS011;53333;51.976;20.144;2023-02-03T09:44:05;14.43;;;6.80;;
36663;SDS011;53333;51.976;20.144;2023-02-03T09:46:46;10.77;;;6.30;;
36663;SDS011;53333;51.976;20.144;2023-02-03T09:49:23;11.52;;;6.18;;
36663;SDS011;53333;51.976;20.144;2023-02-03T09:52:01;11.50;;;6.80;;
36663;SDS011;53333;51.976;20.144;2023-02-03T09:54:40;12.52;;;7.32;;
36663;SDS011;53333;51.976;20.144;2023-02-03T09:57:19;11.52;;;6.20;;
36663;SDS011;53333;51.976;20.144;2023-02-03T09:59:54;15.70;;;7.97;;
36663;SDS011;53333;51.976;20.144;2023-02-03T10:02:36;23.02;;;10.88;;
36663;SDS011;53333;51.976;20.144;2023-02-03T10:05:21;13.73;;;7.07;;
36663;SDS011;53333;51.976;20.144;2023-02-03T10:08:04;13.48;;;7.20;;
36663;SDS011;53333;51.976;20.144;2023-02-03T10:10:46;13.02;;;6.18;;
36663;SDS011;53333;51.976;20.144;2023-02-03T10:13:43;11.70;;;7.20;;
36663;SDS011;53333;51.976;20.144;2023-02-03T10:19:19;16.25;;;6.78;;
36663;SDS011;53333;51.976;20.144;2023-02-03T10:21:56;10.45;;;6.40;;
36663;SDS011;53333;51.976;20.144;2023-02-03T10:24:38;12.02;;;6.15;;
36663;SDS011;53333;51.976;20.144;2023-02-03T10:27:15;16.75;;;7.38;;
36663;SDS011;53333;51.976;20.144;2023-02-03T10:29:53;28.02;;;11.75;;
36663;SDS011;53333;51.976;20.144;2023-02-03T10:32:30;19.83;;;9.75;;
36663;SDS011;53333;51.976;20.144;2023-02-03T10:35:09;31.08;;;12.27;;
36663;SDS011;53333;51.976;20.144;2023-02-03T10:37:43;20.55;;;9.35;;
36663;SDS011;53333;51.976;20.144;2023-02-03T10:40:21;13.07;;;7.28;;
36663;SDS011;53333;51.976;20.144;2023-02-03T10:42:57;13.68;;;6.75;;
36663;SDS011;53333;51.976;20.144;2023-02-03T10:45:48;13.77;;;8.05;;
36663;SDS011;53333;51.976;20.144;2023-02-03T10:48:21;13.85;;;7.18;;
36663;SDS011;53333;51.976;20.144;2023-02-03T10:50:57;13.57;;;7.15;;
36663;SDS011;53333;51.976;20.144;2023-02-03T10:53:31;14.93;;;7.72;;
36663;SDS011;53333;51.976;20.144;2023-02-03T10:56:06;14.13;;;7.20;;
36663;SDS011;53333;51.976;20.144;2023-02-03T10:58:46;15.32;;;7.97;;
36663;SDS011;53333;51.976;20.144;2023-02-03T11:01:22;17.05;;;7.93;;
36663;SDS011;53333;51.976;20.144;2023-02-03T11:03:58;14.77;;;7.82;;
36663;SDS011;53333;51.976;20.144;2023-02-03T11:09:42;13.95;;;7.75;;
36663;SDS011;53333;51.976;20.144;2023-02-03T11:12:15;16.92;;;7.88;;
36663;SDS011;53333;51.976;20.144;2023-02-03T11:14:49;19.23;;;8.38;;
36663;SDS011;53333;51.976;20.144;2023-02-03T11:17:23;16.48;;;8.05;;
36663;SDS011;53333;51.976;20.144;2023-02-03T11:19:57;16.27;;;9.02;;
36663;SDS011;53333;51.976;20.144;2023-02-03T11:22:34;12.88;;;7.95;;
36663;SDS011;53333;51.976;20.144;2023-02-03T11:25:16;18.50;;;7.72;;
36663;SDS011;53333;51.976;20.144;2023-02-03T11:27:50;15.63;;;8.18;;
36663;SDS011;53333;51.976;20.144;2023-02-03T11:30:25;16.38;;;8.85;;
36663;SDS011;53333;51.976;20.144;2023-02-03T11:33:00;19.60;;;8.40;;
36663;SDS011;53333;51.976;20.144;2023-02-03T11:35:33;17.15;;;8.18;;
36663;SDS011;53333;51.976;20.144;2023-02-03T11:38:08;15.32;;;8.25;;
36663;SDS011;53333;51.976;20.144;2023-02-03T11:41:01;13.55;;;7.90;;
36663;SDS011;53333;51.976;20.144;2023-02-03T11:43:33;13.20;;;8.10;;
36663;SDS011;53333;51.976;20.144;2023-02-03T11:46:05;18.38;;;8.50;;
36663;SDS011;53333;51.976;20.144;2023-02-03T11:48:38;16.90;;;8.48;;
36663;SDS011;53333;51.976;20.144;2023-02-03T11:51:23;17.83;;;8.60;;
36663;SDS011;53333;51.976;20.144;2023-02-03T11:54:09;10.98;;;7.07;;
36663;SDS011;53333;51.976;20.144;2023-02-03T11:57:06;20.15;;;8.57;;
36663;SDS011;53333;51.976;20.144;2023-02-03T12:00:03;13.65;;;8.00;;
36663;SDS011;53333;51.976;20.144;2023-02-03T12:06:10;17.48;;;8.75;;
36663;SDS011;53333;51.976;20.144;2023-02-03T12:09:02;15.93;;;8.70;;
36663;SDS011;53333;51.976;20.144;2023-02-03T12:11:57;18.65;;;9.52;;
36663;SDS011;53333;51.976;20.144;2023-02-03T12:14:46;15.50;;;9.23;;
36663;SDS011;53333;51.976;20.144;2023-02-03T12:17:33;15.00;;;8.90;;
36663;SDS011;53333;51.976;20.144;2023-02-03T12:20:22;17.85;;;8.60;;
36663;SDS011;53333;51.976;20.144;2023-02-03T12:23:05;14.32;;;7.97;;
36663;SDS011;53333;51.976;20.144;2023-02-03T12:25:51;18.50;;;8.15;;
36663;SDS011;53333;51.976;20.144;2023-02-03T12:28:40;15.88;;;8.45;;
36663;SDS011;53333;51.976;20.144;2023-02-03T12:31:24;18.33;;;11.48;;
36663;SDS011;53333;51.976;20.144;2023-02-03T12:34:03;18.63;;;9.63;;
36663;SDS011;53333;51.976;20.144;2023-02-03T12:36:46;22.48;;;9.48;;
36663;SDS011;53333;51.976;20.144;2023-02-03T12:39:25;18.20;;;9.73;;
36663;SDS011;53333;51.976;20.144;2023-02-03T12:42:04;19.25;;;9.27;;
36663;SDS011;53333;51.976;20.144;2023-02-03T12:44:44;21.10;;;10.52;;
36663;SDS011;53333;51.976;20.144;2023-02-03T12:47:26;18.55;;;9.85;;
36663;SDS011;53333;51.976;20.144;2023-02-03T12:50:06;22.13;;;10.60;;
36663;SDS011;53333;51.976;20.144;2023-02-03T12:52:50;20.70;;;10.45;;
36663;SDS011;53333;51.976;20.144;2023-02-03T12:55:27;22.23;;;11.00;;
36663;SDS011;53333;51.976;20.144;2023-02-03T12:58:06;24.38;;;11.23;;
36663;SDS011;53333;51.976;20.144;2023-02-03T13:00:46;28.67;;;13.90;;
36663;SDS011;53333;51.976;20.144;2023-02-03T13:03:25;27.05;;;11.80;;
36663;SDS011;53333;51.976;20.144;2023-02-03T13:06:05;19.27;;;10.75;;
36663;SDS011;53333;51.976;20.144;2023-02-03T13:08:45;23.98;;;11.68;;
36663;SDS011;53333;51.976;20.144;2023-02-03T13:11:25;21.08;;;10.32;;
36663;SDS011;53333;51.976;20.144;2023-02-03T13:14:09;22.85;;;11.55;;
36663;SDS011;53333;51.976;20.144;2023-02-03T13:16:51;24.15;;;12.18;;
36663;SDS011;53333;51.976;20.144;2023-02-03T13:19:33;19.33;;;11.25;;
36663;SDS011;53333;51.976;20.144;2023-02-03T13:22:13;23.15;;;10.73;;
36663;SDS011;53333;51.976;20.144;2023-02-03T13:24:49;24.98;;;12.40;;
36663;SDS011;53333;51.976;20.144;2023-02-03T13:27:34;22.00;;;11.50;;
36663;SDS011;53333;51.976;20.144;2023-02-03T13:30:24;22.90;;;11.00;;
36663;SDS011;53333;51.976;20.144;2023-02-03T13:33:20;26.63;;;13.23;;
36663;SDS011;53333;51.976;20.144;2023-02-03T13:36:31;31.77;;;13.70;;
36663;SDS011;53333;51.976;20.144;2023-02-03T13:39:36;36.63;;;16.20;;
36663;SDS011;53333;51.976;20.144;2023-02-03T13:42:18;25.17;;;12.68;;
36663;SDS011;53333;51.976;20.144;2023-02-03T13:44:55;28.20;;;10.98;;
36663;SDS011;53333;51.976;20.144;2023-02-03T13:47:31;25.58;;;11.73;;
36663;SDS011;53333;51.976;20.144;2023-02-03T13:50:06;28.67;;;12.98;;
36663;SDS011;53333;51.976;20.144;2023-02-03T13:52:56;29.42;;;13.10;;
36663;SDS011;53333;51.976;20.144;2023-02-03T13:55:34;22.70;;;10.40;;
36663;SDS011;53333;51.976;20.144;2023-02-03T13:58:17;24.33;;;10.95;;
36663;SDS011;53333;51.976;20.144;2023-02-03T14:00:57;30.50;;;12.38;;
36663;SDS011;53333;51.976;20.144;2023-02-03T14:03:42;23.60;;;11.13;;
36663;SDS011;53333;51.976;20.144;2023-02-03T14:12:37;21.10;;;11.05;;
36663;SDS011;53333;51.976;20.144;2023-02-03T14:15:19;25.45;;;11.98;;
36663;SDS011;53333;51.976;20.144;2023-02-03T14:21:13;22.88;;;10.05;;
36663;SDS011;53333;51.976;20.144;2023-02-03T14:23:51;23.73;;;12.55;;
36663;SDS011;53333;51.976;20.144;2023-02-03T14:26:32;19.92;;;9.82;;
36663;SDS011;53333;51.976;20.144;2023-02-03T14:29:10;26.10;;;11.32;;
36663;SDS011;53333;51.976;20.144;2023-02-03T14:31:57;27.55;;;11.68;;
36663;SDS011;53333;51.976;20.144;2023-02-03T14:34:32;24.05;;;11.30;;
36663;SDS011;53333;51.976;20.144;2023-02-03T14:37:08;22.17;;;11.73;;
36663;SDS011;53333;51.976;20.144;2023-02-03T14:40:01;24.25;;;11.68;;
36663;SDS011;53333;51.976;20.144;2023-02-03T14:43:01;22.85;;;11.05;;
36663;SDS011;53333;51.976;20.144;2023-02-03T14:49:10;30.17;;;12.80;;
36663;SDS011;53333;51.976;20.144;2023-02-03T14:52:05;30.17;;;13.13;;
36663;SDS011;53333;51.976;20.144;2023-02-03T14:54:59;31.23;;;13.30;;
36663;SDS011;53333;51.976;20.144;2023-02-03T14:57:51;25.77;;;11.90;;
36663;SDS011;53333;51.976;20.144;2023-02-03T15:00:30;25.15;;;11.65;;
36663;SDS011;53333;51.976;20.144;2023-02-03T15:03:16;20.80;;;11.07;;
36663;SDS011;53333;51.976;20.144;2023-02-03T15:06:02;18.60;;;9.85;;
36663;SDS011;53333;51.976;20.144;2023-02-03T15:08:38;20.38;;;10.93;;
36663;SDS011;53333;51.976;20.144;2023-02-03T15:11:20;20.40;;;11.75;;
36663;SDS011;53333;51.976;20.144;2023-02-03T15:13:56;23.00;;;11.52;;
36663;SDS011;53333;51.976;20.144;2023-02-03T15:16:53;26.30;;;12.68;;
36663;SDS011;53333;51.976;20.144;2023-02-03T15:19:30;20.33;;;10.65;;
36663;SDS011;53333;51.976;20.144;2023-02-03T15:22:19;29.30;;;13.07;;
36663;SDS011;53333;51.976;20.144;2023-02-03T15:24:54;21.73;;;11.90;;
36663;SDS011;53333;51.976;20.144;2023-02-03T15:27:29;21.27;;;11.93;;
36663;SDS011;53333;51.976;20.144;2023-02-03T15:30:16;18.70;;;9.95;;
36663;SDS011;53333;51.976;20.144;2023-02-03T15:32:56;27.70;;;13.98;;
36663;SDS011;53333;51.976;20.144;2023-02-03T15:35:37;25.98;;;12.88;;
36663;SDS011;53333;51.976;20.144;2023-02-03T15:38:16;24.52;;;11.43;;
36663;SDS011;53333;51.976;20.144;2023-02-03T15:40:53;19.85;;;11.98;;
36663;SDS011;53333;51.976;20.144;2023-02-03T15:43:30;21.42;;;11.38;;
36663;SDS011;53333;51.976;20.144;2023-02-03T15:46:09;21.92;;;11.32;;
36663;SDS011;53333;51.976;20.144;2023-02-03T15:48:51;17.73;;;10.57;;
36663;SDS011;53333;51.976;20.144;2023-02-03T15:51:29;20.70;;;12.40;;
36663;SDS011;53333;51.976;20.144;2023-02-03T15:54:05;24.65;;;11.80;;
36663;SDS011;53333;51.976;20.144;2023-02-03T15:56:45;26.10;;;12.57;;
36663;SDS011;53333;51.976;20.144;2023-02-03T15:59:29;22.98;;;11.57;;
36663;SDS011;53333;51.976;20.144;2023-02-03T16:02:12;23.08;;;11.50;;